createdAt,value
2023-04-16T00:01:15.620Z,49.35
2023-04-16T00:03:42.179Z,42.13
2023-04-16T00:06:10.713Z,45.15
2023-04-16T00:08:37.363Z,43.05
2023-04-16T00:11:03.870Z,46.03
2023-04-16T00:13:30.421Z,45.90
2023-04-16T00:15:57.083Z,49.17
2023-04-16T00:18:23.608Z,46.97
2023-04-16T00:20:50.670Z,44.70
2023-04-16T00:23:17.363Z,52.42
2023-04-16T00:25:43.795Z,49.95
2023-04-16T00:28:11.193Z,47.13
2023-04-16T00:30:37.886Z,48.83
2023-04-16T00:33:04.816Z,53.17
2023-04-16T00:35:31.315Z,47.42
2023-04-16T00:37:57.722Z,49.58
2023-04-16T00:40:27.027Z,51.70
2023-04-16T00:42:53.428Z,46.80
2023-04-16T00:45:20.040Z,48.95
2023-04-16T00:47:46.923Z,44.53
2023-04-16T00:50:14.083Z,47.05
2023-04-16T00:52:40.757Z,49.63
2023-04-16T00:55:07.458Z,52.00
2023-04-16T00:57:33.929Z,51.88
2023-04-16T01:00:00.367Z,49.92
2023-04-16T01:02:27.008Z,46.25
2023-04-16T01:04:53.614Z,45.05
2023-04-16T01:07:20.100Z,37.33
2023-04-16T01:09:46.551Z,35.65
2023-04-16T01:12:13.562Z,28.83
2023-04-16T01:14:40.105Z,32.10
2023-04-16T01:17:06.510Z,33.75
2023-04-16T01:19:36.202Z,36.13
2023-04-16T01:22:03.115Z,30.13
2023-04-16T01:24:29.632Z,35.33
2023-04-16T01:26:57.585Z,32.83
2023-04-16T01:29:24.097Z,31.88
2023-04-16T01:31:51.426Z,26.77
2023-04-16T01:34:31.463Z,30.63
2023-04-16T01:36:58.276Z,27.65
2023-04-16T01:39:24.680Z,30.88
2023-04-16T01:41:51.133Z,29.08
2023-04-16T01:44:17.566Z,28.27
2023-04-16T01:46:44.832Z,27.80
2023-04-16T01:49:11.371Z,30.40
2023-04-16T01:51:38.091Z,27.58
2023-04-16T01:54:04.559Z,31.92
2023-04-16T01:56:30.983Z,25.33
2023-04-16T01:58:57.473Z,30.52
2023-04-16T02:01:26.414Z,25.15
2023-04-16T02:03:53.516Z,26.30
2023-04-16T02:06:20.052Z,27.40
2023-04-16T02:08:46.613Z,27.85
2023-04-16T02:11:14.355Z,30.23
2023-04-16T02:13:41.117Z,30.75
2023-04-16T02:16:07.733Z,35.92
2023-04-16T02:18:43.486Z,34.28
2023-04-16T02:21:11.140Z,35.47
2023-04-16T02:23:41.047Z,43.13
2023-04-16T02:26:07.500Z,42.90
2023-04-16T02:28:33.986Z,47.08
2023-04-16T02:31:00.973Z,45.80
2023-04-16T02:33:32.090Z,50.83
2023-04-16T02:36:01.675Z,49.35
2023-04-16T02:38:28.279Z,57.25
2023-04-16T02:40:54.749Z,51.38
2023-04-16T02:43:21.190Z,48.70
2023-04-16T02:45:47.667Z,51.72
2023-04-16T02:48:14.205Z,58.33
2023-04-16T02:50:40.677Z,49.65
2023-04-16T02:53:07.834Z,59.50
2023-04-16T02:55:34.373Z,69.45
2023-04-16T02:58:00.907Z,68.88
2023-04-16T03:00:27.448Z,73.53
2023-04-16T03:02:54.143Z,70.18
2023-04-16T03:05:21.538Z,71.20
2023-04-16T03:07:48.099Z,67.15
2023-04-16T03:10:15.187Z,77.55
2023-04-16T03:12:41.648Z,79.40
2023-04-16T03:15:08.315Z,69.03
2023-04-16T03:17:34.794Z,70.03
2023-04-16T03:20:01.337Z,72.15
2023-04-16T03:22:27.785Z,73.03
2023-04-16T03:24:54.257Z,79.03
2023-04-16T03:27:20.809Z,83.57
2023-04-16T03:29:47.926Z,83.70
2023-04-16T03:32:14.418Z,82.63
2023-04-16T03:34:41.185Z,85.35
2023-04-16T03:37:08.967Z,90.55
2023-04-16T03:39:35.599Z,84.07
2023-04-16T03:42:03.383Z,84.75
2023-04-16T03:44:30.120Z,85.00
2023-04-16T03:46:56.937Z,88.50
2023-04-16T03:49:23.455Z,82.53
2023-04-16T03:51:51.189Z,89.03
2023-04-16T03:54:17.629Z,88.55
2023-04-16T03:56:50.088Z,87.82
2023-04-16T03:59:16.873Z,85.53
2023-04-16T04:01:44.035Z,87.28
2023-04-16T04:04:11.045Z,85.75
2023-04-16T04:06:37.624Z,89.63
2023-04-16T04:09:04.124Z,86.43
2023-04-16T04:11:30.663Z,89.63
2023-04-16T04:13:57.157Z,88.82
2023-04-16T04:16:23.638Z,85.38
2023-04-16T04:18:50.198Z,76.82
2023-04-16T04:21:16.705Z,79.57
2023-04-16T04:23:43.715Z,76.25
2023-04-16T04:26:10.993Z,77.22
2023-04-16T04:28:37.467Z,73.40
2023-04-16T04:31:04.437Z,74.03
2023-04-16T04:33:31.246Z,74.68
2023-04-16T04:35:57.976Z,74.30
2023-04-16T04:38:26.447Z,69.85
2023-04-16T04:40:53.400Z,70.00
2023-04-16T04:43:23.058Z,72.00
2023-04-16T04:45:50.369Z,72.53
2023-04-16T04:48:17.565Z,68.47
2023-04-16T04:50:45.312Z,64.32
2023-04-16T04:53:12.136Z,71.72
2023-04-16T04:55:39.396Z,74.38
2023-04-16T04:58:06.531Z,73.78
2023-04-16T05:00:33.757Z,84.65
2023-04-16T05:03:04.755Z,81.15
2023-04-16T05:05:31.436Z,79.95
2023-04-16T05:07:58.042Z,81.50
2023-04-16T05:10:24.595Z,87.53
2023-04-16T05:12:52.453Z,88.03
2023-04-16T05:15:19.056Z,92.20
2023-04-16T05:17:45.960Z,98.13
2023-04-16T05:20:12.508Z,94.93
2023-04-16T05:22:39.123Z,90.78
2023-04-16T05:25:06.322Z,98.03
2023-04-16T05:27:32.803Z,97.45
2023-04-16T05:29:59.486Z,99.97
2023-04-16T05:32:26.326Z,96.63
2023-04-16T05:34:52.776Z,96.90
2023-04-16T05:37:19.269Z,106.85
2023-04-16T05:39:45.760Z,103.13
2023-04-16T05:42:12.195Z,105.07
2023-04-16T05:44:38.617Z,111.68
2023-04-16T05:47:05.110Z,100.13
2023-04-16T05:49:31.603Z,106.30
2023-04-16T05:51:58.075Z,111.57
2023-04-16T05:54:24.522Z,109.95
2023-04-16T05:56:50.935Z,102.93
2023-04-16T05:59:17.439Z,104.55
2023-04-16T06:01:43.986Z,101.85
2023-04-16T06:04:10.650Z,104.05
2023-04-16T06:06:37.497Z,95.18
2023-04-16T06:09:04.197Z,109.57
2023-04-16T06:11:30.704Z,111.72
2023-04-16T06:13:57.198Z,100.82
2023-04-16T06:16:23.849Z,98.63
2023-04-16T06:18:53.370Z,108.90
2023-04-16T06:21:19.966Z,98.72
2023-04-16T06:23:46.494Z,109.05
2023-04-16T06:26:12.992Z,127.00
2023-04-16T06:28:39.431Z,120.97
2023-04-16T06:31:05.967Z,111.13
2023-04-16T06:33:32.399Z,124.10
2023-04-16T06:35:58.904Z,123.68
2023-04-16T06:38:25.357Z,122.50
2023-04-16T06:40:51.982Z,106.97
2023-04-16T06:43:18.633Z,117.40
2023-04-16T06:45:45.320Z,113.38
2023-04-16T06:48:11.769Z,118.95
2023-04-16T06:50:38.453Z,124.40
2023-04-16T06:53:04.956Z,119.80
2023-04-16T06:55:31.418Z,118.65
2023-04-16T06:57:57.872Z,98.97
2023-04-16T07:00:24.362Z,96.15
2023-04-16T07:02:50.942Z,90.90
2023-04-16T07:05:17.583Z,87.45
2023-04-16T07:07:44.253Z,71.97
2023-04-16T07:10:10.881Z,87.68
2023-04-16T07:12:37.500Z,70.32
2023-04-16T07:15:04.222Z,66.70
2023-04-16T07:17:30.702Z,67.10
2023-04-16T07:19:57.328Z,58.22
2023-04-16T07:22:23.952Z,62.10
2023-04-16T07:24:50.746Z,56.92
2023-04-16T07:27:17.525Z,54.50
2023-04-16T07:29:45.609Z,62.38
2023-04-16T07:32:14.072Z,48.85
2023-04-16T07:34:41.946Z,52.75
2023-04-16T07:37:08.819Z,46.78
2023-04-16T07:39:35.409Z,46.85
2023-04-16T07:42:02.191Z,42.08
2023-04-16T07:44:28.862Z,44.97
2023-04-16T07:46:55.629Z,45.88
2023-04-16T07:49:22.380Z,47.85
2023-04-16T07:51:48.962Z,42.50
2023-04-16T07:54:15.527Z,42.28
2023-04-16T07:56:42.091Z,41.13
2023-04-16T08:01:41.480Z,40.42
2023-04-16T08:04:08.209Z,39.88
2023-04-16T08:06:34.953Z,40.42
2023-04-16T08:09:01.529Z,37.67
2023-04-16T08:11:28.245Z,40.97
2023-04-16T08:13:54.835Z,45.58
2023-04-16T08:16:21.655Z,42.25
2023-04-16T08:18:48.386Z,37.58
2023-04-16T08:21:16.124Z,41.60
2023-04-16T08:23:43.172Z,44.45
2023-04-16T08:26:09.720Z,42.65
2023-04-16T08:28:36.225Z,40.45
2023-04-16T08:31:02.691Z,39.60
2023-04-16T08:33:29.224Z,41.00
2023-04-16T08:35:56.055Z,37.85
2023-04-16T08:38:22.565Z,36.05
2023-04-16T08:40:49.323Z,36.22
2023-04-16T08:43:16.184Z,36.42
2023-04-16T08:45:43.834Z,35.50
2023-04-16T08:48:11.802Z,33.47
2023-04-16T08:50:38.776Z,30.48
2023-04-16T08:53:08.782Z,34.08
2023-04-16T08:55:46.827Z,30.85
2023-04-16T08:58:20.609Z,31.75
2023-04-16T09:00:47.853Z,28.02
2023-04-16T09:03:14.662Z,27.98
2023-04-16T09:05:42.319Z,28.55
2023-04-16T09:08:11.433Z,28.55
2023-04-16T09:10:38.170Z,26.13
2023-04-16T09:13:04.697Z,31.45
2023-04-16T09:15:33.421Z,26.90
2023-04-16T09:18:01.572Z,24.60
2023-04-16T09:20:28.062Z,25.95
2023-04-16T09:22:57.126Z,23.73
2023-04-16T09:25:24.914Z,25.02
2023-04-16T09:27:51.495Z,23.17
2023-04-16T09:30:25.003Z,26.00
2023-04-16T09:32:52.903Z,26.52
2023-04-16T09:35:20.356Z,24.60
2023-04-16T09:37:57.144Z,27.85
2023-04-16T09:40:27.799Z,26.00
2023-04-16T09:42:57.010Z,26.85
2023-04-16T09:45:23.482Z,26.95
2023-04-16T09:47:50.061Z,27.83
2023-04-16T09:50:18.649Z,27.02
2023-04-16T09:52:47.756Z,27.02
2023-04-16T09:55:14.270Z,26.98
2023-04-16T09:57:40.743Z,25.67
2023-04-16T10:00:09.066Z,24.52
2023-04-16T10:02:38.935Z,24.13
2023-04-16T10:05:06.433Z,25.00
2023-04-16T10:07:36.718Z,25.05
2023-04-16T10:10:03.930Z,25.15
2023-04-16T10:12:32.664Z,25.83
2023-04-16T10:14:59.354Z,25.65
2023-04-16T10:17:30.390Z,24.63
2023-04-16T10:19:57.819Z,25.92
2023-04-16T10:22:24.326Z,26.05
2023-04-16T10:24:51.397Z,27.50
2023-04-16T10:27:21.245Z,25.10
2023-04-16T10:29:48.722Z,27.92
2023-04-16T10:32:16.027Z,27.70
2023-04-16T10:34:42.766Z,26.95
2023-04-16T10:37:09.200Z,26.63
2023-04-16T10:39:37.576Z,27.27
2023-04-16T10:42:10.464Z,26.90
2023-04-16T10:44:37.045Z,26.40
2023-04-16T10:47:09.583Z,25.95
2023-04-16T10:49:39.122Z,26.52
2023-04-16T10:52:16.971Z,24.38
2023-04-16T10:54:43.576Z,26.80
2023-04-16T10:57:12.767Z,24.00
2023-04-16T10:59:42.288Z,25.08
2023-04-16T11:02:12.943Z,26.20
2023-04-16T11:04:42.021Z,25.75
2023-04-16T11:07:08.557Z,25.38
2023-04-16T11:09:46.104Z,23.88
2023-04-16T11:12:13.639Z,26.58
2023-04-16T11:14:41.245Z,23.02
2023-04-16T11:17:08.008Z,26.38
2023-04-16T11:19:38.475Z,22.15
2023-04-16T11:22:05.555Z,20.17
2023-04-16T11:24:32.895Z,18.38
2023-04-16T11:26:59.498Z,20.73
2023-04-16T11:29:25.981Z,20.30
2023-04-16T11:31:53.647Z,19.02
2023-04-16T11:34:20.337Z,19.42
2023-04-16T11:36:51.323Z,19.60
2023-04-16T11:39:18.561Z,18.38
2023-04-16T11:41:48.815Z,17.85
2023-04-16T11:44:19.471Z,18.63
2023-04-16T11:46:45.940Z,17.08
2023-04-16T11:49:12.577Z,17.45
2023-04-16T11:51:42.478Z,18.10
2023-04-16T11:54:11.829Z,19.55
2023-04-16T11:56:38.731Z,17.58
2023-04-16T11:59:12.620Z,18.05
2023-04-16T12:01:40.762Z,18.00
2023-04-16T12:04:08.135Z,18.42
2023-04-16T12:06:34.833Z,19.35
2023-04-16T12:09:21.549Z,20.13
2023-04-16T12:11:47.984Z,21.48
2023-04-16T12:14:14.516Z,19.33
2023-04-16T12:16:41.197Z,18.15
2023-04-16T12:19:10.812Z,15.43
2023-04-16T12:21:41.413Z,15.38
2023-04-16T12:24:08.588Z,14.93
2023-04-16T12:26:45.265Z,13.15
2023-04-16T12:29:16.003Z,15.13
2023-04-16T12:31:42.742Z,15.07
2023-04-16T12:34:10.350Z,14.05
2023-04-16T12:36:37.118Z,14.52
2023-04-16T12:39:03.861Z,13.68
2023-04-16T12:41:30.539Z,13.57
2023-04-16T12:44:16.521Z,12.80
2023-04-16T12:46:43.610Z,13.50
2023-04-16T12:49:10.538Z,12.63
2023-04-16T12:51:37.845Z,12.45
2023-04-16T12:54:05.587Z,12.27
2023-04-16T12:56:32.061Z,12.40
2023-04-16T12:58:58.569Z,11.95
2023-04-16T13:01:25.185Z,12.10
2023-04-16T13:03:52.031Z,12.10
2023-04-16T13:06:18.632Z,12.15
2023-04-16T13:08:45.430Z,12.18
2023-04-16T13:11:12.441Z,11.68
2023-04-16T13:13:39.009Z,12.55
2023-04-16T13:16:06.769Z,12.35
2023-04-16T13:18:33.583Z,12.02
2023-04-16T13:21:00.108Z,12.40
2023-04-16T13:23:27.036Z,11.95
2023-04-16T13:25:53.576Z,11.48
2023-04-16T13:28:20.133Z,14.50
2023-04-16T13:30:49.603Z,13.35
2023-04-16T13:33:16.422Z,13.25
2023-04-16T13:35:42.988Z,12.45
2023-04-16T13:38:09.427Z,12.98
2023-04-16T13:40:35.913Z,12.75
2023-04-16T13:43:02.374Z,12.40
2023-04-16T13:45:28.946Z,12.50
2023-04-16T13:47:56.321Z,12.73
2023-04-16T13:50:23.018Z,14.70
2023-04-16T13:52:49.463Z,13.48
2023-04-16T13:55:19.141Z,13.88
2023-04-16T13:57:49.790Z,15.30
2023-04-16T14:00:16.773Z,14.05
2023-04-16T14:02:45.808Z,14.88
2023-04-16T14:05:12.536Z,13.85
2023-04-16T14:07:39.079Z,14.23
2023-04-16T14:10:05.825Z,13.52
2023-04-16T14:12:32.491Z,14.95
2023-04-16T14:15:01.932Z,15.15
2023-04-16T14:17:28.473Z,15.00
2023-04-16T14:19:55.009Z,14.68
2023-04-16T14:22:21.452Z,14.95
2023-04-16T14:24:48.073Z,13.52
2023-04-16T14:27:14.631Z,13.88
2023-04-16T14:29:41.511Z,16.00
2023-04-16T14:32:08.125Z,14.57
2023-04-16T14:34:34.826Z,13.30
2023-04-16T14:37:01.378Z,14.18
2023-04-16T14:39:27.956Z,14.82
2023-04-16T14:41:54.479Z,14.15
2023-04-16T14:44:21.597Z,15.40
2023-04-16T14:46:48.134Z,15.00
2023-04-16T14:49:14.880Z,14.00
2023-04-16T14:51:41.789Z,15.13
2023-04-16T14:54:08.253Z,14.05
2023-04-16T14:56:34.727Z,14.95
2023-04-16T14:59:01.270Z,13.50
2023-04-16T15:01:27.789Z,14.07
2023-04-16T15:03:58.303Z,14.20
2023-04-16T15:06:26.795Z,14.35
2023-04-16T15:08:53.293Z,14.38
2023-04-16T15:11:19.839Z,13.93
2023-04-16T15:13:46.283Z,13.85
2023-04-16T15:16:13.052Z,14.30
2023-04-16T15:18:39.631Z,14.88
2023-04-16T15:21:06.253Z,13.20
2023-04-16T15:23:32.741Z,13.02
2023-04-16T15:25:59.277Z,13.00
2023-04-16T15:28:25.819Z,12.88
2023-04-16T15:30:52.496Z,12.70
2023-04-16T15:33:20.992Z,12.32
2023-04-16T15:35:47.682Z,12.50
2023-04-16T15:38:14.108Z,17.15
2023-04-16T15:40:41.057Z,12.82
2023-04-16T15:43:07.589Z,12.73
2023-04-16T15:45:34.140Z,12.05
2023-04-16T15:48:00.605Z,11.10
2023-04-16T15:50:27.155Z,12.02
2023-04-16T15:52:53.670Z,10.90
2023-04-16T15:55:20.966Z,11.38
2023-04-16T15:57:47.584Z,11.35
2023-04-16T16:00:16.949Z,10.88
2023-04-16T16:02:44.268Z,11.60
2023-04-16T16:05:11.850Z,11.32
2023-04-16T16:07:38.471Z,12.18
2023-04-16T16:10:06.090Z,10.25
2023-04-16T16:12:32.993Z,11.90
2023-04-16T16:14:59.499Z,12.38
2023-04-16T16:17:26.101Z,11.50
2023-04-16T16:19:52.621Z,12.13
2023-04-16T16:22:23.542Z,12.38
2023-04-16T16:24:53.301Z,12.90
2023-04-16T16:27:22.602Z,12.60
2023-04-16T16:29:49.159Z,11.73
2023-04-16T16:32:16.569Z,13.00
2023-04-16T16:34:43.229Z,13.55
2023-04-16T16:37:09.712Z,14.70
2023-04-16T16:39:38.374Z,16.70
2023-04-16T16:42:05.240Z,14.65
2023-04-16T16:44:31.799Z,15.10
2023-04-16T16:46:58.332Z,14.48
2023-04-16T16:49:24.860Z,16.88
2023-04-16T16:51:51.319Z,20.60
2023-04-16T16:54:17.828Z,25.02
2023-04-16T16:56:44.295Z,22.80
2023-04-16T16:59:11.038Z,22.73
2023-04-16T17:01:37.814Z,23.10
2023-04-16T17:04:04.667Z,23.45
2023-04-16T17:06:31.931Z,22.23
2023-04-16T17:08:58.416Z,21.52
2023-04-16T17:11:27.123Z,26.33
2023-04-16T17:13:53.717Z,27.17
2023-04-16T17:16:20.410Z,21.38
2023-04-16T17:18:47.184Z,18.77
2023-04-16T17:21:16.559Z,22.65
2023-04-16T17:23:43.358Z,21.35
2023-04-16T17:26:09.749Z,19.90
2023-04-16T17:28:36.414Z,21.38
2023-04-16T17:31:03.665Z,22.35
2023-04-16T17:33:30.131Z,22.38
2023-04-16T17:35:56.636Z,26.02
2023-04-16T17:38:23.207Z,24.45
2023-04-16T17:40:49.697Z,24.27
2023-04-16T17:43:16.239Z,21.83
2023-04-16T17:45:42.756Z,25.20
2023-04-16T17:48:09.527Z,27.20
2023-04-16T17:50:38.179Z,27.10
2023-04-16T17:53:06.068Z,28.23
2023-04-16T17:55:32.546Z,28.73
2023-04-16T17:58:00.368Z,33.53
2023-04-16T18:00:26.865Z,27.52
2023-04-16T18:02:54.344Z,28.02
2023-04-16T18:05:21.235Z,26.42
2023-04-16T18:07:48.307Z,31.42
2023-04-16T18:10:14.859Z,32.78
2023-04-16T18:12:41.392Z,29.83
2023-04-16T18:15:08.215Z,31.83
2023-04-16T18:17:34.697Z,33.13
2023-04-16T18:20:01.292Z,30.08
2023-04-16T18:22:28.538Z,33.60
2023-04-16T18:24:55.290Z,33.25
2023-04-16T18:27:21.986Z,29.45
2023-04-16T18:29:49.417Z,33.00
2023-04-16T18:32:16.376Z,31.15
2023-04-16T18:34:43.132Z,32.08
2023-04-16T18:37:09.600Z,33.05
2023-04-16T18:39:36.921Z,35.08
2023-04-16T18:42:03.877Z,36.95
2023-04-16T18:44:30.538Z,33.92
2023-04-16T18:46:57.111Z,36.75
2023-04-16T18:49:23.766Z,32.47
2023-04-16T18:51:50.276Z,34.45
2023-04-16T18:54:16.760Z,35.95
2023-04-16T18:56:43.297Z,32.17
2023-04-16T18:59:10.081Z,35.20
2023-04-16T19:01:36.729Z,30.92
2023-04-16T19:04:03.473Z,35.63
2023-04-16T19:06:30.062Z,33.40
2023-04-16T19:08:56.590Z,36.00
2023-04-16T19:11:23.096Z,27.58
2023-04-16T19:13:49.555Z,31.92
2023-04-16T19:16:16.912Z,30.38
2023-04-16T19:18:43.473Z,29.88
2023-04-16T19:21:10.874Z,30.08
2023-04-16T19:23:37.585Z,30.15
2023-04-16T19:26:04.116Z,30.60
2023-04-16T19:28:30.766Z,29.58
2023-04-16T19:30:57.174Z,30.52
2023-04-16T19:33:23.615Z,32.40
2023-04-16T19:35:50.133Z,30.67
2023-04-16T19:38:16.615Z,31.30
2023-04-16T19:40:46.832Z,29.90
2023-04-16T19:43:13.467Z,30.98
2023-04-16T19:45:43.687Z,31.70
2023-04-16T19:48:10.376Z,29.17
2023-04-16T19:50:42.527Z,30.58
2023-04-16T19:53:09.399Z,31.70
2023-04-16T19:55:36.522Z,29.65
2023-04-16T19:58:06.410Z,30.55
2023-04-16T20:00:33.918Z,28.95
2023-04-16T20:03:00.562Z,29.75
2023-04-16T20:05:27.187Z,27.83
2023-04-16T20:07:54.047Z,27.45
2023-04-16T20:10:20.551Z,30.52
2023-04-16T20:12:47.380Z,28.83
2023-04-16T20:15:14.004Z,28.52
2023-04-16T20:17:40.764Z,31.63
2023-04-16T20:20:09.827Z,26.98
2023-04-16T20:22:39.908Z,29.40
2023-04-16T20:25:07.526Z,29.40
2023-04-16T20:27:34.096Z,31.48
2023-04-16T20:30:01.234Z,29.73
2023-04-16T20:32:28.025Z,30.50
2023-04-16T20:34:55.671Z,26.42
2023-04-16T20:37:22.419Z,26.95
2023-04-16T20:39:50.227Z,29.00
2023-04-16T20:42:16.795Z,34.28
2023-04-16T20:44:50.262Z,30.65
2023-04-16T20:47:19.901Z,26.92
2023-04-16T20:49:46.498Z,28.83
2023-04-16T20:52:13.273Z,29.80
2023-04-16T20:54:39.909Z,28.75
2023-04-16T20:57:06.456Z,30.30
2023-04-16T20:59:32.911Z,32.33
2023-04-16T21:01:59.509Z,31.58
2023-04-16T21:04:26.197Z,35.38
2023-04-16T21:06:55.628Z,34.70
2023-04-16T21:09:22.634Z,40.80
2023-04-16T21:11:49.121Z,40.60
2023-04-16T21:14:15.804Z,37.63
2023-04-16T21:16:42.301Z,44.88
2023-04-16T21:19:09.091Z,45.97
2023-04-16T21:21:36.779Z,40.28
2023-04-16T21:24:03.346Z,40.60
2023-04-16T21:26:29.838Z,44.20
2023-04-16T21:28:56.313Z,39.75
2023-04-16T21:31:22.848Z,43.53
2023-04-16T21:33:49.414Z,42.65
2023-04-16T21:36:15.861Z,45.60
2023-04-16T21:38:42.297Z,40.75
2023-04-16T21:41:08.761Z,40.00
2023-04-16T21:43:35.404Z,41.47
2023-04-16T21:46:01.903Z,44.53
2023-04-16T21:48:28.651Z,42.30
2023-04-16T21:50:59.716Z,50.13
2023-04-16T21:53:28.038Z,41.58
2023-04-16T21:55:54.513Z,51.88
2023-04-16T21:58:20.930Z,51.92
2023-04-16T22:00:47.551Z,53.33
2023-04-16T22:03:14.217Z,48.20
2023-04-16T22:05:41.054Z,44.33
2023-04-16T22:08:23.291Z,48.22
2023-04-16T22:10:51.226Z,45.67
2023-04-16T22:13:17.804Z,52.42
2023-04-16T22:15:44.346Z,49.53
2023-04-16T22:18:11.489Z,51.22
2023-04-16T22:20:39.123Z,49.53
2023-04-16T22:23:06.242Z,50.03
2023-04-16T22:25:32.845Z,51.88
2023-04-16T22:27:59.847Z,50.78
2023-04-16T22:30:26.314Z,54.60
2023-04-16T22:32:52.764Z,54.75
2023-04-16T22:35:19.315Z,56.42
2023-04-16T22:37:45.977Z,56.42
2023-04-16T22:40:12.494Z,54.78
2023-04-16T22:42:38.970Z,53.13
2023-04-16T22:45:05.988Z,55.95
2023-04-16T22:47:32.463Z,54.53
2023-04-16T22:50:00.333Z,59.65
2023-04-16T22:52:27.480Z,61.63
2023-04-16T22:54:53.978Z,58.25
2023-04-16T22:57:25.627Z,55.90
2023-04-16T22:59:52.945Z,60.08
2023-04-16T23:02:20.180Z,59.05
2023-04-16T23:04:47.705Z,60.17
2023-04-16T23:07:14.737Z,56.30
2023-04-16T23:09:41.250Z,57.75
2023-04-16T23:12:07.888Z,58.33
2023-04-16T23:14:34.973Z,55.92
2023-04-16T23:17:01.408Z,58.33
2023-04-16T23:19:27.873Z,54.55
2023-04-16T23:21:54.281Z,60.83
2023-04-16T23:24:20.769Z,68.32
2023-04-16T23:26:47.997Z,57.60
2023-04-16T23:29:14.422Z,55.72
2023-04-16T23:31:40.859Z,58.40
2023-04-16T23:34:07.578Z,61.40
2023-04-16T23:36:34.006Z,62.45
2023-04-16T23:39:00.718Z,59.63
2023-04-16T23:41:27.190Z,59.55
2023-04-16T23:43:53.774Z,59.50
2023-04-16T23:46:20.371Z,57.65
2023-04-16T23:48:46.830Z,62.65
2023-04-16T23:51:13.320Z,57.58
2023-04-16T23:53:40.779Z,60.17
2023-04-16T23:56:08.004Z,57.15
2023-04-16T23:58:34.479Z,62.90
